Time;durP1;ratioP1;P1;durP2;ratioP2;P2;SDS_P1;SDS_P2;PMS_P1;PMS_P2;Temp;Humidity;BMP_temperature;BMP_pressure;BME280_temperature;BME280_humidity;BME280_pressure;Samples;Min_cycle;Max_cycle;Signal;HPM_P1;HPM_P2
2023/04/09 00:01:05;;;;;;;9.43;5.80;;;;;;;;;;5114714;28;20694;-75
2023/04/09 00:03:34;;;;;;;9.47;6.07;;;;;;;;;;5114983;28;20293;-74
2023/04/09 00:06:01;;;;;;;8.37;5.90;;;;;;;;;;5114807;28;20299;-75
2023/04/09 00:08:28;;;;;;;10.07;6.07;;;;;;;;;;5114500;28;20200;-74
2023/04/09 00:10:55;;;;;;;8.80;6.07;;;;;;;;;;5114197;28;20289;-74
2023/04/09 00:13:23;;;;;;;8.70;6.40;;;;;;;;;;5114419;28;20230;-75
2023/04/09 00:15:50;;;;;;;8.77;5.93;;;;;;;;;;5114383;28;20198;-74
2023/04/09 00:18:17;;;;;;;9.63;6.17;;;;;;;;;;5114517;28;20289;-74
2023/04/09 00:20:46;;;;;;;9.10;5.97;;;;;;;;;;5114633;28;20197;-75
2023/04/09 00:23:13;;;;;;;11.63;6.17;;;;;;;;;;5113828;28;20644;-74
2023/04/09 00:25:40;;;;;;;8.70;6.23;;;;;;;;;;5114128;28;20773;-75
2023/04/09 00:28:07;;;;;;;11.30;6.23;;;;;;;;;;5114077;28;20761;-74
2023/04/09 00:30:35;;;;;;;9.33;5.93;;;;;;;;;;5114136;28;20282;-75
2023/04/09 00:33:02;;;;;;;8.90;6.33;;;;;;;;;;5113984;28;20225;-74
2023/04/09 00:35:29;;;;;;;9.50;6.57;;;;;;;;;;5114314;28;20215;-75
2023/04/09 00:37:57;;;;;;;10.87;6.53;;;;;;;;;;5113558;28;20651;-74
2023/04/09 00:40:25;;;;;;;10.73;7.27;;;;;;;;;;5113753;28;20317;-75
2023/04/09 00:42:52;;;;;;;9.53;6.90;;;;;;;;;;5114178;28;20221;-74
2023/04/09 00:45:19;;;;;;;11.00;6.67;;;;;;;;;;5114000;28;20201;-75
2023/04/09 00:47:46;;;;;;;10.30;7.20;;;;;;;;;;5114219;28;20281;-74
2023/04/09 00:50:14;;;;;;;9.67;7.33;;;;;;;;;;5113825;28;20576;-75
2023/04/09 00:52:41;;;;;;;9.53;6.80;;;;;;;;;;5112927;28;20635;-74
2023/04/09 00:55:10;;;;;;;11.47;7.83;;;;;;;;;;5113672;28;20297;-75
2023/04/09 00:57:37;;;;;;;10.90;7.10;;;;;;;;;;5113754;28;20218;-74
2023/04/09 01:00:06;;;;;;;11.20;7.53;;;;;;;;;;5113885;28;20539;-75
2023/04/09 01:02:34;;;;;;;10.23;7.57;;;;;;;;;;5113317;28;20225;-74
2023/04/09 01:05:01;;;;;;;11.47;7.57;;;;;;;;;;5113935;28;20604;-75
2023/04/09 01:07:33;;;;;;;12.47;8.07;;;;;;;;;;5112953;28;20542;-75
2023/04/09 01:10:02;;;;;;;13.27;8.13;;;;;;;;;;5113609;28;20293;-74
2023/04/09 01:12:33;;;;;;;12.50;7.50;;;;;;;;;;5113678;28;20653;-74
2023/04/09 01:15:04;;;;;;;10.67;7.70;;;;;;;;;;5113821;28;20194;-74
2023/04/09 01:17:34;;;;;;;12.90;7.80;;;;;;;;;;5113327;27;20190;-74
2023/04/09 01:20:03;;;;;;;13.73;8.33;;;;;;;;;;5113088;28;20232;-74
2023/04/09 01:22:34;;;;;;;11.50;7.87;;;;;;;;;;5112658;28;20239;-75
2023/04/09 01:25:05;;;;;;;11.10;8.03;;;;;;;;;;5113442;28;20288;-75
2023/04/09 01:27:40;;;;;;;13.60;9.00;;;;;;;;;;5113743;28;20647;-74
2023/04/09 01:30:10;;;;;;;11.60;8.50;;;;;;;;;;5113012;28;20752;-74
2023/04/09 01:32:37;;;;;;;11.83;8.60;;;;;;;;;;5113299;28;20308;-74
2023/04/09 01:35:05;;;;;;;13.53;9.10;;;;;;;;;;5112480;28;20196;-74
2023/04/09 01:37:33;;;;;;;13.40;8.83;;;;;;;;;;5112779;28;20292;-75
2023/04/09 01:40:00;;;;;;;15.70;9.27;;;;;;;;;;5112960;28;20674;-74
2023/04/09 01:42:28;;;;;;;15.80;9.47;;;;;;;;;;5112717;28;20297;-75
2023/04/09 01:44:55;;;;;;;12.53;9.60;;;;;;;;;;5112634;28;20654;-75
2023/04/09 01:47:24;;;;;;;12.77;8.90;;;;;;;;;;5112453;28;20288;-74
2023/04/09 01:49:51;;;;;;;13.17;9.03;;;;;;;;;;5112470;28;20325;-74
2023/04/09 01:52:19;;;;;;;13.70;9.37;;;;;;;;;;5112775;28;20566;-75
2023/04/09 01:54:46;;;;;;;12.47;8.73;;;;;;;;;;5112902;28;20763;-74
2023/04/09 01:57:13;;;;;;;13.17;8.80;;;;;;;;;;5112306;28;20637;-75
2023/04/09 01:59:40;;;;;;;12.93;8.83;;;;;;;;;;5112328;28;20284;-74
2023/04/09 02:02:10;;;;;;;13.33;9.63;;;;;;;;;;5111865;28;20690;-75
2023/04/09 02:04:41;;;;;;;14.93;9.43;;;;;;;;;;5111709;28;20662;-74
2023/04/09 02:07:10;;;;;;;15.50;9.23;;;;;;;;;;5112048;28;20241;-74
2023/04/09 02:09:39;;;;;;;13.23;9.60;;;;;;;;;;5112694;28;20275;-73
2023/04/09 02:12:07;;;;;;;13.63;9.47;;;;;;;;;;5112424;28;20239;-74
2023/04/09 02:14:35;;;;;;;14.93;9.27;;;;;;;;;;5112088;28;20205;-74
2023/04/09 02:17:03;;;;;;;14.30;9.87;;;;;;;;;;5112328;28;20201;-74
2023/04/09 02:19:40;;;;;;;14.40;9.73;;;;;;;;;;5112170;28;20288;-74
2023/04/09 02:22:07;;;;;;;15.77;9.30;;;;;;;;;;5112139;28;20197;-74
2023/04/09 02:24:35;;;;;;;13.70;9.33;;;;;;;;;;5111956;28;20194;-74
2023/04/09 02:27:02;;;;;;;13.93;9.40;;;;;;;;;;5112206;28;20271;-75
2023/04/09 02:29:30;;;;;;;13.80;10.07;;;;;;;;;;5103773;28;20198;-75
2023/04/09 02:31:57;;;;;;;13.77;10.13;;;;;;;;;;5098742;28;20289;-74
2023/04/09 02:34:24;;;;;;;14.80;10.13;;;;;;;;;;5090425;28;20222;-74
2023/04/09 02:36:53;;;;;;;17.87;9.93;;;;;;;;;;5091667;28;20194;-74
2023/04/09 02:39:20;;;;;;;15.20;10.37;;;;;;;;;;5091286;28;20204;-74
2023/04/09 02:41:47;;;;;;;14.63;10.30;;;;;;;;;;5091693;28;20268;-74
2023/04/09 02:44:14;;;;;;;14.60;10.30;;;;;;;;;;5091534;28;20229;-75
2023/04/09 02:46:42;;;;;;;14.73;10.07;;;;;;;;;;5091168;28;20285;-75
2023/04/09 02:49:09;;;;;;;13.53;10.23;;;;;;;;;;5091234;28;20281;-74
2023/04/09 02:51:36;;;;;;;14.63;10.20;;;;;;;;;;5091139;28;20290;-75
2023/04/09 02:54:05;;;;;;;15.93;10.27;;;;;;;;;;5091143;28;20676;-74
2023/04/09 02:56:32;;;;;;;17.53;11.53;;;;;;;;;;5091253;28;20670;-74
2023/04/09 02:58:59;;;;;;;13.90;10.60;;;;;;;;;;5091370;28;20634;-74
2023/04/09 03:01:26;;;;;;;14.30;9.30;;;;;;;;;;5090933;28;20884;-75
2023/04/09 03:03:54;;;;;;;15.67;10.83;;;;;;;;;;5090956;28;20741;-75
2023/04/09 03:06:21;;;;;;;16.13;10.80;;;;;;;;;;5091194;28;20281;-74
2023/04/09 03:08:48;;;;;;;14.83;10.83;;;;;;;;;;5091442;28;20681;-75
2023/04/09 03:11:16;;;;;;;18.23;11.37;;;;;;;;;;5091388;28;20244;-75
2023/04/09 03:13:44;;;;;;;15.23;10.83;;;;;;;;;;5103440;28;20317;-74
2023/04/09 03:16:11;;;;;;;14.50;11.27;;;;;;;;;;5115041;28;20250;-74
2023/04/09 03:18:38;;;;;;;15.67;10.93;;;;;;;;;;5115822;28;20610;-75
2023/04/09 03:21:06;;;;;;;14.90;10.73;;;;;;;;;;5116168;28;20328;-74
2023/04/09 03:23:33;;;;;;;16.63;11.20;;;;;;;;;;5115483;28;20192;-75
2023/04/09 03:26:01;;;;;;;17.43;11.40;;;;;;;;;;5115540;28;20232;-75
2023/04/09 03:28:30;;;;;;;16.73;11.10;;;;;;;;;;5115605;28;20196;-74
2023/04/09 03:30:57;;;;;;;14.33;11.07;;;;;;;;;;5114911;28;20235;-74
2023/04/09 03:33:25;;;;;;;14.67;10.70;;;;;;;;;;5115215;28;20695;-74
2023/04/09 03:35:52;;;;;;;16.77;11.90;;;;;;;;;;5115529;28;20194;-74
2023/04/09 03:38:19;;;;;;;16.37;11.60;;;;;;;;;;5115435;28;20190;-75
2023/04/09 03:40:47;;;;;;;17.43;11.90;;;;;;;;;;5114793;28;20234;-75
2023/04/09 03:43:14;;;;;;;14.93;11.20;;;;;;;;;;5115162;28;20300;-75
2023/04/09 03:45:42;;;;;;;15.40;11.43;;;;;;;;;;5114564;28;20204;-74
2023/04/09 03:48:10;;;;;;;16.10;11.20;;;;;;;;;;5114999;28;20272;-75
2023/04/09 03:50:39;;;;;;;15.50;11.80;;;;;;;;;;5115248;28;20217;-75
2023/04/09 03:53:07;;;;;;;17.27;11.73;;;;;;;;;;5114886;28;20312;-74
2023/04/09 03:55:34;;;;;;;15.13;11.27;;;;;;;;;;5114906;28;20658;-75
2023/04/09 03:58:01;;;;;;;15.03;11.13;;;;;;;;;;5114761;28;20281;-74
2023/04/09 04:00:28;;;;;;;16.17;12.03;;;;;;;;;;5114284;28;20288;-74
2023/04/09 04:02:57;;;;;;;17.53;11.67;;;;;;;;;;5114638;28;20239;-73
2023/04/09 04:05:25;;;;;;;17.07;11.37;;;;;;;;;;5114673;28;20198;-74
2023/04/09 04:07:52;;;;;;;15.40;11.03;;;;;;;;;;5114566;28;20210;-74
2023/04/09 04:10:19;;;;;;;18.03;11.93;;;;;;;;;;5114769;28;20257;-74
2023/04/09 04:12:46;;;;;;;19.87;11.73;;;;;;;;;;5114408;28;20205;-75
2023/04/09 04:15:14;;;;;;;16.70;11.80;;;;;;;;;;5114119;28;20225;-74
2023/04/09 04:17:41;;;;;;;16.57;12.03;;;;;;;;;;5114334;28;20692;-74
2023/04/09 04:20:10;;;;;;;20.23;11.53;;;;;;;;;;5114431;28;20297;-74
2023/04/09 04:22:38;;;;;;;18.67;12.17;;;;;;;;;;5114190;28;20666;-74
2023/04/09 04:25:05;;;;;;;17.90;12.10;;;;;;;;;;5114356;28;20276;-74
2023/04/09 04:27:32;;;;;;;16.83;12.17;;;;;;;;;;5114001;28;20292;-74
2023/04/09 04:30:00;;;;;;;17.50;11.97;;;;;;;;;;5113983;28;20197;-74
2023/04/09 04:32:28;;;;;;;16.47;12.17;;;;;;;;;;5114638;28;20201;-75
2023/04/09 04:34:55;;;;;;;20.37;12.57;;;;;;;;;;5113972;28;20235;-75
2023/04/09 04:37:23;;;;;;;17.10;11.73;;;;;;;;;;5113964;28;20221;-74
2023/04/09 04:39:50;;;;;;;17.37;12.00;;;;;;;;;;5113920;28;20284;-74
2023/04/09 04:42:18;;;;;;;17.73;11.60;;;;;;;;;;5114142;28;20287;-75
2023/04/09 04:44:45;;;;;;;18.07;11.80;;;;;;;;;;5113416;28;20333;-74
2023/04/09 04:47:12;;;;;;;17.83;12.20;;;;;;;;;;5113738;28;20739;-75
2023/04/09 04:49:39;;;;;;;17.43;11.50;;;;;;;;;;5114109;28;20250;-74
2023/04/09 04:52:07;;;;;;;22.60;12.10;;;;;;;;;;5113973;28;20204;-75
2023/04/09 04:54:35;;;;;;;17.00;11.93;;;;;;;;;;5114010;28;20218;-74
2023/04/09 04:57:02;;;;;;;16.87;11.83;;;;;;;;;;5114253;28;20285;-74
2023/04/09 04:59:30;;;;;;;19.80;11.80;;;;;;;;;;5113211;28;20265;-74
2023/04/09 05:01:57;;;;;;;16.60;11.30;;;;;;;;;;5113652;28;20296;-74
2023/04/09 05:04:24;;;;;;;21.60;12.60;;;;;;;;;;5113852;28;20283;-74
2023/04/09 05:06:51;;;;;;;16.87;11.80;;;;;;;;;;5113670;28;20202;-74
2023/04/09 05:09:18;;;;;;;20.23;12.47;;;;;;;;;;5112812;28;20192;-75
2023/04/09 05:11:47;;;;;;;18.30;12.43;;;;;;;;;;5113492;28;20295;-75
2023/04/09 05:14:14;;;;;;;18.70;12.80;;;;;;;;;;5112770;28;20314;-74
2023/04/09 05:16:41;;;;;;;18.63;12.37;;;;;;;;;;5113367;28;20197;-74
2023/04/09 05:19:08;;;;;;;19.53;12.20;;;;;;;;;;5113655;28;20207;-74
2023/04/09 05:21:38;;;;;;;19.00;12.57;;;;;;;;;;5113098;28;20291;-74
2023/04/09 05:24:06;;;;;;;15.67;11.37;;;;;;;;;;5113248;28;20295;-74
2023/04/09 05:26:33;;;;;;;21.33;13.53;;;;;;;;;;5112866;28;20688;-74
2023/04/09 05:29:02;;;;;;;19.27;12.57;;;;;;;;;;5112877;28;20605;-74
2023/04/09 05:31:29;;;;;;;19.23;12.60;;;;;;;;;;5112985;28;20279;-73
2023/04/09 05:33:56;;;;;;;18.70;12.40;;;;;;;;;;5113036;28;20314;-74
2023/04/09 05:36:23;;;;;;;20.00;12.87;;;;;;;;;;5113122;28;20284;-74
2023/04/09 05:38:50;;;;;;;21.10;12.70;;;;;;;;;;5113135;28;20843;-74
2023/04/09 05:41:17;;;;;;;18.77;13.17;;;;;;;;;;5112756;28;20235;-74
2023/04/09 05:43:45;;;;;;;19.97;13.30;;;;;;;;;;5112224;28;20291;-74
2023/04/09 05:46:13;;;;;;;19.33;12.90;;;;;;;;;;5112301;28;20672;-74
2023/04/09 05:48:40;;;;;;;21.77;13.10;;;;;;;;;;5112886;28;20245;-74
2023/04/09 05:51:08;;;;;;;20.50;12.97;;;;;;;;;;5112724;28;20288;-74
2023/04/09 05:53:35;;;;;;;20.67;13.73;;;;;;;;;;5112834;28;20231;-74
2023/04/09 05:56:02;;;;;;;18.17;12.97;;;;;;;;;;5111854;28;20223;-74
2023/04/09 05:58:30;;;;;;;23.17;13.07;;;;;;;;;;5112718;28;20232;-73
2023/04/09 06:00:57;;;;;;;18.50;13.43;;;;;;;;;;5112388;28;20201;-76
2023/04/09 06:03:25;;;;;;;17.50;12.23;;;;;;;;;;5112712;28;20280;-76
2023/04/09 06:05:53;;;;;;;17.47;12.67;;;;;;;;;;5112563;28;20232;-76
2023/04/09 06:08:20;;;;;;;16.03;12.13;;;;;;;;;;5112314;28;20277;-76
2023/04/09 06:10:47;;;;;;;17.40;12.30;;;;;;;;;;5111911;28;20200;-76
2023/04/09 06:13:14;;;;;;;15.17;11.50;;;;;;;;;;5112135;28;20284;-75
2023/04/09 06:15:41;;;;;;;17.30;11.80;;;;;;;;;;5112263;28;20278;-76
2023/04/09 06:18:08;;;;;;;18.00;11.87;;;;;;;;;;5112112;28;20237;-76
2023/04/09 06:20:37;;;;;;;15.23;11.67;;;;;;;;;;5111837;28;20313;-75
2023/04/09 06:23:04;;;;;;;17.27;11.63;;;;;;;;;;5112413;28;20227;-75
2023/04/09 06:25:31;;;;;;;14.33;11.13;;;;;;;;;;5111339;28;20228;-75
2023/04/09 06:27:58;;;;;;;16.07;11.27;;;;;;;;;;5112144;28;20287;-75
2023/04/09 06:30:25;;;;;;;18.00;12.27;;;;;;;;;;5112090;28;20281;-76
2023/04/09 06:32:53;;;;;;;17.60;11.67;;;;;;;;;;5112271;28;20284;-76
2023/04/09 06:35:20;;;;;;;15.73;11.67;;;;;;;;;;5111809;28;20315;-75
2023/04/09 06:37:48;;;;;;;18.00;11.93;;;;;;;;;;5111913;28;20285;-76
2023/04/09 06:40:16;;;;;;;20.60;12.60;;;;;;;;;;5111172;28;20670;-75
2023/04/09 06:42:43;;;;;;;17.10;12.20;;;;;;;;;;5111794;28;20757;-75
2023/04/09 06:45:10;;;;;;;17.27;11.87;;;;;;;;;;5111714;28;20244;-76
2023/04/09 06:47:37;;;;;;;19.07;12.30;;;;;;;;;;5111611;28;20243;-75
2023/04/09 06:50:05;;;;;;;16.83;12.47;;;;;;;;;;5111160;28;20289;-75
2023/04/09 06:52:32;;;;;;;17.90;12.47;;;;;;;;;;5112237;28;20296;-75
2023/04/09 06:55:01;;;;;;;19.10;12.57;;;;;;;;;;5111531;28;20231;-75
2023/04/09 06:57:28;;;;;;;17.17;12.67;;;;;;;;;;5111313;28;20205;-75
2023/04/09 06:59:55;;;;;;;16.80;12.33;;;;;;;;;;5111456;28;20293;-75
2023/04/09 07:02:22;;;;;;;19.20;12.73;;;;;;;;;;5111491;28;20693;-75
2023/04/09 07:04:49;;;;;;;17.63;12.70;;;;;;;;;;5111461;28;20280;-75
2023/04/09 07:07:17;;;;;;;20.97;12.10;;;;;;;;;;5111649;28;20281;-76
2023/04/09 07:09:45;;;;;;;18.57;12.47;;;;;;;;;;5111117;28;20190;-75
2023/04/09 07:12:13;;;;;;;16.37;11.60;;;;;;;;;;5111600;28;20228;-75
2023/04/09 07:14:40;;;;;;;16.63;11.70;;;;;;;;;;5111437;28;20271;-75
2023/04/09 07:17:08;;;;;;;17.77;12.30;;;;;;;;;;5111492;28;20190;-76
2023/04/09 07:19:35;;;;;;;13.73;11.33;;;;;;;;;;5111292;28;20190;-73
2023/04/09 07:22:02;;;;;;;13.85;11.50;;;;;;;;;;5111675;28;20198;-75
2023/04/09 07:24:30;;;;;;;15.73;10.82;;;;;;;;;;5110538;28;20292;-76
2023/04/09 07:26:57;;;;;;;14.23;10.93;;;;;;;;;;5111405;28;20280;-75
2023/04/09 07:29:26;;;;;;;11.35;10.25;;;;;;;;;;5111517;28;20289;-76
2023/04/09 07:31:53;;;;;;;12.40;11.05;;;;;;;;;;5110928;28;20727;-76
2023/04/09 07:34:20;;;;;;;12.65;11.00;;;;;;;;;;5111615;28;20783;-75
2023/04/09 07:36:48;;;;;;;14.48;10.65;;;;;;;;;;5111112;28;20296;-75
2023/04/09 07:39:15;;;;;;;12.27;10.57;;;;;;;;;;5110804;28;20198;-75
2023/04/09 07:41:42;;;;;;;12.88;10.90;;;;;;;;;;5110993;28;20229;-75
2023/04/09 07:44:10;;;;;;;13.00;10.23;;;;;;;;;;5111086;28;20202;-74
2023/04/09 07:46:38;;;;;;;13.38;10.43;;;;;;;;;;5111547;28;20584;-75
2023/04/09 07:49:05;;;;;;;11.20;10.10;;;;;;;;;;5110516;28;20205;-75
2023/04/09 07:51:33;;;;;;;10.77;9.43;;;;;;;;;;5105900;28;20305;-75
2023/04/09 07:54:00;;;;;;;11.75;9.70;;;;;;;;;;5110870;28;20221;-75
2023/04/09 07:56:27;;;;;;;12.70;10.70;;;;;;;;;;5111011;28;20194;-76
2023/04/09 07:58:54;;;;;;;11.70;10.02;;;;;;;;;;5111620;28;20686;-74
2023/04/09 08:01:23;;;;;;;11.55;9.82;;;;;;;;;;5112258;28;20753;-75
2023/04/09 08:03:52;;;;;;;11.30;10.15;;;;;;;;;;5114882;28;20243;-75
2023/04/09 08:06:19;;;;;;;11.50;10.32;;;;;;;;;;5114745;28;20202;-75
2023/04/09 08:08:46;;;;;;;11.10;9.75;;;;;;;;;;5107447;28;20197;-76
2023/04/09 08:11:13;;;;;;;11.38;10.18;;;;;;;;;;5093644;28;20365;-76
2023/04/09 08:13:40;;;;;;;10.48;9.35;;;;;;;;;;5098238;27;20203;-75
2023/04/09 08:16:07;;;;;;;10.15;9.15;;;;;;;;;;5094432;28;20324;-76
2023/04/09 08:18:35;;;;;;;11.07;9.93;;;;;;;;;;5093269;28;20621;-77
2023/04/09 08:21:06;;;;;;;10.45;9.38;;;;;;;;;;5093268;28;20198;-76
2023/04/09 08:23:33;;;;;;;10.75;9.65;;;;;;;;;;5094384;28;20198;-76
2023/04/09 08:26:00;;;;;;;10.85;9.48;;;;;;;;;;5096001;28;20225;-75
2023/04/09 08:28:27;;;;;;;12.25;9.32;;;;;;;;;;5114423;28;20280;-76
2023/04/09 08:30:55;;;;;;;9.77;8.77;;;;;;;;;;5114172;28;20226;-76
2023/04/09 08:33:22;;;;;;;11.02;9.05;;;;;;;;;;5114244;28;20198;-76
2023/04/09 08:35:49;;;;;;;10.90;9.38;;;;;;;;;;5113614;28;20225;-76
2023/04/09 08:38:19;;;;;;;10.05;8.98;;;;;;;;;;5114197;28;20285;-75
2023/04/09 08:40:46;;;;;;;12.70;9.65;;;;;;;;;;5113720;28;20257;-76
2023/04/09 08:43:15;;;;;;;10.15;9.07;;;;;;;;;;5113952;28;20197;-77
2023/04/09 08:45:43;;;;;;;10.88;9.15;;;;;;;;;;5113802;28;20694;-76
2023/04/09 08:48:10;;;;;;;9.27;8.38;;;;;;;;;;5113873;28;20277;-76
2023/04/09 08:50:37;;;;;;;10.05;8.90;;;;;;;;;;5113386;28;20297;-76
2023/04/09 08:53:05;;;;;;;9.55;8.50;;;;;;;;;;5113664;28;20734;-77
2023/04/09 08:55:36;;;;;;;9.60;8.52;;;;;;;;;;5114333;28;20229;-77
2023/04/09 08:58:06;;;;;;;8.82;7.93;;;;;;;;;;5113922;28;20194;-76
2023/04/09 09:00:33;;;;;;;9.48;7.40;;;;;;;;;;5111458;28;20197;-77
2023/04/09 09:03:04;;;;;;;10.57;8.05;;;;;;;;;;5108659;28;20209;-76
2023/04/09 09:05:42;;;;;;;9.38;7.95;;;;;;;;;;5109281;28;20197;-76
2023/04/09 09:08:10;;;;;;;8.90;8.00;;;;;;;;;;5108635;28;20201;-76
2023/04/09 09:10:42;;;;;;;9.50;7.18;;;;;;;;;;5114046;27;20281;-76
2023/04/09 09:13:20;;;;;;;9.05;7.57;;;;;;;;;;5119962;27;20304;-77
2023/04/09 09:15:49;;;;;;;8.77;7.80;;;;;;;;;;5115461;27;20228;-76
2023/04/09 09:18:17;;;;;;;8.75;7.53;;;;;;;;;;5113462;28;20197;-75
2023/04/09 09:20:45;;;;;;;8.90;7.00;;;;;;;;;;5112679;28;20201;-76
2023/04/09 09:23:12;;;;;;;8.18;7.32;;;;;;;;;;5112828;28;20555;-76
2023/04/09 09:25:39;;;;;;;9.57;7.15;;;;;;;;;;5112088;28;20240;-76
2023/04/09 09:28:11;;;;;;;8.07;6.78;;;;;;;;;;5109432;28;20231;-77
2023/04/09 09:30:39;;;;;;;9.48;7.70;;;;;;;;;;5110856;28;20292;-76
2023/04/09 09:33:07;;;;;;;9.15;7.28;;;;;;;;;;5112956;27;20201;-76
2023/04/09 09:35:50;;;;;;;7.85;6.88;;;;;;;;;;5109497;27;20308;-76
2023/04/09 09:38:17;;;;;;;7.35;6.55;;;;;;;;;;5110693;28;20292;-75
2023/04/09 09:40:45;;;;;;;7.13;6.40;;;;;;;;;;5102396;28;20324;-75
2023/04/09 09:43:14;;;;;;;7.30;6.55;;;;;;;;;;5112537;28;20193;-76
2023/04/09 09:45:42;;;;;;;7.78;6.57;;;;;;;;;;5112127;28;20228;-76
2023/04/09 09:48:10;;;;;;;8.00;6.68;;;;;;;;;;5112162;28;20202;-75
2023/04/09 09:50:40;;;;;;;7.28;6.05;;;;;;;;;;5112234;28;20277;-77
2023/04/09 09:53:08;;;;;;;6.93;6.00;;;;;;;;;;5112616;28;20206;-75
2023/04/09 09:55:38;;;;;;;7.10;6.40;;;;;;;;;;5112408;28;20793;-75
2023/04/09 09:58:10;;;;;;;6.90;5.78;;;;;;;;;;5112462;28;20284;-75
2023/04/09 10:00:41;;;;;;;7.55;6.20;;;;;;;;;;5112605;28;20247;-76
2023/04/09 10:03:13;;;;;;;6.30;5.70;;;;;;;;;;5111887;28;20197;-75
2023/04/09 10:05:41;;;;;;;6.25;5.65;;;;;;;;;;5113102;28;20202;-75
2023/04/09 10:08:08;;;;;;;6.07;5.47;;;;;;;;;;5112739;28;20285;-75
2023/04/09 10:10:36;;;;;;;5.82;5.22;;;;;;;;;;5112521;28;20284;-74
2023/04/09 10:13:05;;;;;;;6.30;5.70;;;;;;;;;;5112552;28;20204;-75
2023/04/09 10:15:33;;;;;;;8.48;5.47;;;;;;;;;;5112566;28;20316;-74
2023/04/09 10:18:02;;;;;;;7.18;5.43;;;;;;;;;;5111908;28;20293;-75
2023/04/09 10:20:33;;;;;;;6.72;5.50;;;;;;;;;;5112150;28;20194;-74
2023/04/09 10:23:02;;;;;;;5.95;5.25;;;;;;;;;;5112193;28;20229;-75
2023/04/09 10:25:29;;;;;;;8.18;6.32;;;;;;;;;;5111251;28;20236;-74
2023/04/09 10:28:01;;;;;;;6.85;6.15;;;;;;;;;;5112020;28;20194;-74
2023/04/09 10:30:34;;;;;;;7.65;5.35;;;;;;;;;;5112459;28;20285;-75
2023/04/09 10:33:11;;;;;;;5.85;5.25;;;;;;;;;;5112054;28;20666;-75
2023/04/09 10:35:38;;;;;;;6.85;5.45;;;;;;;;;;5111741;28;20311;-75
2023/04/09 10:38:08;;;;;;;6.75;5.55;;;;;;;;;;5112479;28;20190;-75
2023/04/09 10:40:35;;;;;;;6.43;5.47;;;;;;;;;;5111867;28;20229;-75
2023/04/09 10:43:03;;;;;;;7.30;5.57;;;;;;;;;;5111976;28;20289;-74
2023/04/09 10:45:40;;;;;;;6.47;5.35;;;;;;;;;;5111817;28;20688;-74
2023/04/09 10:48:13;;;;;;;6.35;4.80;;;;;;;;;;5111995;28;20288;-75
2023/04/09 10:50:43;;;;;;;5.78;5.13;;;;;;;;;;5111900;28;20728;-75
2023/04/09 10:53:21;;;;;;;5.50;4.90;;;;;;;;;;5112016;28;20293;-75
2023/04/09 10:55:49;;;;;;;6.65;4.88;;;;;;;;;;5111978;28;20316;-75
2023/04/09 10:58:17;;;;;;;6.60;4.90;;;;;;;;;;5111502;28;20194;-75
2023/04/09 11:00:45;;;;;;;5.85;5.25;;;;;;;;;;5111432;28;20263;-75
2023/04/09 11:03:33;;;;;;;8.02;5.07;;;;;;;;;;5111558;28;20201;-74
2023/04/09 11:06:04;;;;;;;5.60;4.72;;;;;;;;;;5111988;28;20285;-74
2023/04/09 11:08:32;;;;;;;5.43;4.65;;;;;;;;;;5111479;28;20196;-75
2023/04/09 11:11:00;;;;;;;4.68;4.20;;;;;;;;;;5111964;28;20216;-75
2023/04/09 11:13:27;;;;;;;4.15;3.50;;;;;;;;;;5110884;28;20205;-74
2023/04/09 11:15:54;;;;;;;4.68;3.90;;;;;;;;;;5110735;28;20221;-75
2023/04/09 11:18:23;;;;;;;4.60;4.10;;;;;;;;;;5111821;28;20280;-75
2023/04/09 11:20:50;;;;;;;4.25;3.85;;;;;;;;;;5111789;28;20243;-76
2023/04/09 11:23:19;;;;;;;4.18;3.60;;;;;;;;;;5111592;28;20289;-74
2023/04/09 11:25:49;;;;;;;4.05;3.50;;;;;;;;;;5111470;28;20209;-75
2023/04/09 11:28:17;;;;;;;4.55;3.70;;;;;;;;;;5111811;28;20570;-74
2023/04/09 11:30:45;;;;;;;5.32;4.32;;;;;;;;;;5110750;28;20204;-75
2023/04/09 11:33:12;;;;;;;5.68;3.85;;;;;;;;;;5111938;28;20242;-74
2023/04/09 11:35:40;;;;;;;6.85;5.90;;;;;;;;;;5113564;28;20925;-76
2023/04/09 11:38:07;;;;;;;10.73;8.43;;;;;;;;;;5115549;28;20662;-75
2023/04/09 11:40:36;;;;;;;6.22;4.60;;;;;;;;;;5115230;28;20229;-75
2023/04/09 11:43:03;;;;;;;6.10;4.68;;;;;;;;;;5115958;28;20193;-75
2023/04/09 11:45:31;;;;;;;6.03;5.43;;;;;;;;;;5115100;28;20225;-75
2023/04/09 11:47:59;;;;;;;5.95;4.53;;;;;;;;;;5115329;28;20229;-75
2023/04/09 11:50:26;;;;;;;4.78;4.07;;;;;;;;;;5115076;28;20197;-75
2023/04/09 11:52:53;;;;;;;4.53;3.95;;;;;;;;;;5115293;28;20684;-75
2023/04/09 11:55:24;;;;;;;4.00;3.60;;;;;;;;;;5115094;28;20652;-75
2023/04/09 11:57:54;;;;;;;5.10;4.70;;;;;;;;;;5115241;28;20221;-75
2023/04/09 12:00:23;;;;;;;7.82;7.03;;;;;;;;;;5114821;28;20300;-75
2023/04/09 12:02:51;;;;;;;4.90;3.67;;;;;;;;;;5115151;28;20206;-74
2023/04/09 12:05:23;;;;;;;4.97;4.30;;;;;;;;;;5114915;28;20276;-74
2023/04/09 12:07:50;;;;;;;5.22;4.68;;;;;;;;;;5115387;28;20228;-75
2023/04/09 12:10:18;;;;;;;3.50;3.20;;;;;;;;;;5114895;28;20280;-75
2023/04/09 12:12:46;;;;;;;4.18;3.40;;;;;;;;;;5114201;28;20289;-75
2023/04/09 12:15:19;;;;;;;4.72;3.60;;;;;;;;;;5114708;28;20284;-74
2023/04/09 12:17:47;;;;;;;4.03;3.13;;;;;;;;;;5114959;28;20202;-75
2023/04/09 12:20:15;;;;;;;4.68;3.20;;;;;;;;;;5114668;28;20194;-75
2023/04/09 12:22:42;;;;;;;3.53;3.15;;;;;;;;;;5114583;28;20341;-75
2023/04/09 12:25:10;;;;;;;3.35;2.92;;;;;;;;;;5114324;28;20284;-75
2023/04/09 12:27:37;;;;;;;3.90;3.22;;;;;;;;;;5114085;28;20713;-75
2023/04/09 12:30:04;;;;;;;3.50;3.20;;;;;;;;;;5114759;28;20644;-75
2023/04/09 12:32:33;;;;;;;4.07;3.67;;;;;;;;;;5114486;28;20280;-76
2023/04/09 12:35:00;;;;;;;5.03;4.50;;;;;;;;;;5114748;28;20194;-75
2023/04/09 12:37:27;;;;;;;4.13;3.65;;;;;;;;;;5114189;28;20332;-74
2023/04/09 12:39:55;;;;;;;4.85;3.60;;;;;;;;;;5114143;28;20205;-75
2023/04/09 12:42:22;;;;;;;4.00;3.70;;;;;;;;;;5114139;28;20197;-75
2023/04/09 12:44:50;;;;;;;4.63;4.13;;;;;;;;;;5114310;28;20204;-74
2023/04/09 12:47:18;;;;;;;5.88;4.43;;;;;;;;;;5113168;28;20202;-76
2023/04/09 12:49:48;;;;;;;4.47;3.83;;;;;;;;;;5114253;28;20201;-76
2023/04/09 12:52:17;;;;;;;4.35;3.95;;;;;;;;;;5114307;28;20208;-76
2023/04/09 12:54:44;;;;;;;5.15;3.90;;;;;;;;;;5114015;28;20202;-76
2023/04/09 12:57:11;;;;;;;5.55;4.18;;;;;;;;;;5114451;28;20324;-75
2023/04/09 12:59:38;;;;;;;4.43;3.88;;;;;;;;;;5113542;28;20249;-76
2023/04/09 13:02:06;;;;;;;4.85;3.85;;;;;;;;;;5113635;28;20666;-75
2023/04/09 13:04:33;;;;;;;4.60;3.65;;;;;;;;;;5113716;28;20363;-75
2023/04/09 13:07:02;;;;;;;4.55;3.80;;;;;;;;;;5113984;28;20651;-75
2023/04/09 13:09:29;;;;;;;5.13;4.03;;;;;;;;;;5113614;28;20194;-75
2023/04/09 13:11:56;;;;;;;4.63;3.70;;;;;;;;;;5113406;28;20719;-75
2023/04/09 13:14:23;;;;;;;5.55;4.28;;;;;;;;;;5113485;28;20214;-75
2023/04/09 13:16:51;;;;;;;6.78;4.10;;;;;;;;;;5113279;28;20298;-75
2023/04/09 13:19:18;;;;;;;4.03;3.53;;;;;;;;;;5113731;28;20194;-75
2023/04/09 13:21:46;;;;;;;4.00;3.60;;;;;;;;;;5113520;28;20193;-75
2023/04/09 13:24:14;;;;;;;5.32;3.65;;;;;;;;;;5113331;28;20216;-75
2023/04/09 13:26:41;;;;;;;3.83;3.40;;;;;;;;;;5112977;28;20229;-76
2023/04/09 13:29:09;;;;;;;10.02;7.00;;;;;;;;;;5113549;28;20198;-76
2023/04/09 13:31:36;;;;;;;3.60;3.03;;;;;;;;;;5113107;28;20288;-75
2023/04/09 13:34:05;;;;;;;3.53;2.97;;;;;;;;;;5113181;28;20281;-75
2023/04/09 13:36:32;;;;;;;3.03;2.72;;;;;;;;;;5113176;28;20724;-74
2023/04/09 13:39:03;;;;;;;2.90;2.53;;;;;;;;;;5113456;28;20302;-75
2023/04/09 13:41:32;;;;;;;2.75;2.50;;;;;;;;;;5112155;28;20240;-75
2023/04/09 13:43:59;;;;;;;2.72;2.53;;;;;;;;;;5112847;28;20216;-76
2023/04/09 13:46:27;;;;;;;2.38;2.13;;;;;;;;;;5113013;28;20200;-76
2023/04/09 13:48:54;;;;;;;2.60;2.10;;;;;;;;;;5113005;28;20685;-75
2023/04/09 13:51:21;;;;;;;2.97;2.45;;;;;;;;;;5113107;28;20194;-75
2023/04/09 13:53:49;;;;;;;2.78;2.30;;;;;;;;;;5112808;28;20288;-75
2023/04/09 13:56:16;;;;;;;2.55;2.30;;;;;;;;;;5112301;28;20320;-75
2023/04/09 13:58:45;;;;;;;3.30;2.30;;;;;;;;;;5111390;28;20223;-75
2023/04/09 14:01:13;;;;;;;2.95;2.63;;;;;;;;;;5112409;28;20788;-75
2023/04/09 14:03:41;;;;;;;3.40;2.70;;;;;;;;;;5112806;28;20194;-75
2023/04/09 14:06:09;;;;;;;3.20;2.85;;;;;;;;;;5112776;28;20189;-76
2023/04/09 14:08:36;;;;;;;2.72;2.35;;;;;;;;;;5112652;28;20202;-75
2023/04/09 14:11:03;;;;;;;3.00;2.70;;;;;;;;;;5112478;28;20198;-74
2023/04/09 14:13:30;;;;;;;2.78;2.53;;;;;;;;;;5111756;28;20202;-75
2023/04/09 14:15:59;;;;;;;3.15;2.42;;;;;;;;;;5112216;28;20574;-75
2023/04/09 14:18:26;;;;;;;2.58;2.25;;;;;;;;;;5112657;28;20200;-75
2023/04/09 14:20:53;;;;;;;2.85;2.40;;;;;;;;;;5112474;28;20561;-75
2023/04/09 14:23:20;;;;;;;2.45;2.25;;;;;;;;;;5111950;28;20285;-75
2023/04/09 14:25:48;;;;;;;3.00;2.60;;;;;;;;;;5112325;28;20292;-75
2023/04/09 14:28:15;;;;;;;2.90;2.40;;;;;;;;;;5112312;28;20244;-75
2023/04/09 14:30:42;;;;;;;2.53;2.30;;;;;;;;;;5112369;28;20289;-75
2023/04/09 14:33:11;;;;;;;2.47;2.15;;;;;;;;;;5112342;28;20194;-75
2023/04/09 14:35:38;;;;;;;2.97;2.15;;;;;;;;;;5112301;28;20198;-75